createdAt,value
2022-07-31T00:00:19.239Z,101858.22
2022-07-31T00:02:46.920Z,101868.09
2022-07-31T00:05:14.530Z,101863.84
2022-07-31T00:07:41.564Z,101864.94
2022-07-31T00:10:09.272Z,101868.41
2022-07-31T00:12:36.403Z,101851.78
2022-07-31T00:15:06.906Z,101861.22
2022-07-31T00:17:34.347Z,101859.50
2022-07-31T00:20:02.027Z,101844.78
2022-07-31T00:22:29.113Z,101843.16
2022-07-31T00:24:56.851Z,101858.16
2022-07-31T00:27:24.030Z,101853.97
2022-07-31T00:29:51.320Z,101845.28
2022-07-31T00:32:18.718Z,101842.56
2022-07-31T00:34:45.811Z,101847.84
2022-07-31T00:37:35.951Z,101840.88
2022-07-31T00:40:05.584Z,101843.44
2022-07-31T00:42:32.776Z,101830.38
2022-07-31T00:45:00.125Z,101829.38
2022-07-31T00:47:27.374Z,101839.09
2022-07-31T00:49:54.989Z,101833.91
2022-07-31T00:52:22.033Z,101830.50
2022-07-31T00:54:49.305Z,101829.81
2022-07-31T00:57:16.402Z,101824.88
2022-07-31T00:59:44.296Z,101833.72
2022-07-31T01:02:12.282Z,101836.53
2022-07-31T01:04:54.762Z,101837.41
2022-07-31T01:07:21.723Z,101819.88
2022-07-31T01:09:49.906Z,101830.41
2022-07-31T01:12:38.357Z,101837.53
2022-07-31T01:15:10.242Z,101827.88
2022-07-31T01:17:40.321Z,101828.81
2022-07-31T01:20:08.825Z,101828.97
2022-07-31T01:23:31.011Z,101828.03
2022-07-31T01:26:35.995Z,101827.22
2022-07-31T01:29:24.277Z,101831.69
2022-07-31T01:32:06.161Z,101840.47
2022-07-31T01:34:52.270Z,101843.09
2022-07-31T01:37:32.156Z,101838.69
2022-07-31T01:40:06.588Z,101836.03
2022-07-31T01:42:37.518Z,101836.94
2022-07-31T01:45:10.667Z,101834.41
2022-07-31T01:47:43.012Z,101825.09
2022-07-31T01:50:42.434Z,101834.59
2022-07-31T01:53:00.928Z,101829.44
2022-07-31T01:55:31.073Z,101822.50
2022-07-31T01:58:21.624Z,101829.72
2022-07-31T02:00:52.152Z,101830.69
2022-07-31T02:03:43.728Z,101829.81
2022-07-31T02:06:10.804Z,101830.81
2022-07-31T02:08:38.989Z,101825.72
2022-07-31T02:11:07.054Z,101808.56
2022-07-31T02:13:37.898Z,101832.16
2022-07-31T02:16:06.169Z,101821.88
2022-07-31T02:18:35.273Z,101828.56
2022-07-31T02:21:02.316Z,101826.78
2022-07-31T02:23:29.345Z,101829.38
2022-07-31T02:25:57.117Z,101821.50
2022-07-31T02:28:26.059Z,101819.81
2022-07-31T02:30:54.317Z,101819.84
2022-07-31T02:33:25.487Z,101818.28
2022-07-31T02:35:56.470Z,101822.63
2022-07-31T02:38:27.499Z,101829.75
2022-07-31T02:41:01.570Z,101826.22
2022-07-31T02:43:31.011Z,101810.31
2022-07-31T02:45:59.045Z,101805.91
2022-07-31T02:48:27.468Z,101817.25
2022-07-31T02:50:56.214Z,101812.97
2022-07-31T02:53:23.889Z,101807.78
2022-07-31T02:55:52.615Z,101803.56
2022-07-31T02:58:19.980Z,101802.53
2022-07-31T03:00:47.197Z,101806.94
2022-07-31T03:03:14.489Z,101806.97
2022-07-31T03:05:41.522Z,101787.81
2022-07-31T03:08:08.528Z,101795.63
2022-07-31T03:10:35.506Z,101797.63
2022-07-31T03:13:05.313Z,101795.19
2022-07-31T03:15:33.894Z,101793.03
2022-07-31T03:18:01.804Z,101797.47
2022-07-31T03:20:39.712Z,101799.13
2022-07-31T03:23:07.355Z,101805.47
2022-07-31T03:25:34.474Z,101807.25
2022-07-31T03:28:01.685Z,101802.84
2022-07-31T03:30:28.983Z,101801.06
2022-07-31T03:32:57.145Z,101795.00
2022-07-31T03:35:27.305Z,101803.00
2022-07-31T03:37:55.868Z,101804.59
2022-07-31T03:40:22.955Z,101805.56
2022-07-31T03:42:50.863Z,101812.34
2022-07-31T03:45:19.242Z,101798.09
2022-07-31T03:47:46.559Z,101808.47
2022-07-31T03:50:14.686Z,101799.56
2022-07-31T03:52:41.882Z,101803.75
2022-07-31T03:55:09.899Z,101800.84
2022-07-31T03:57:38.638Z,101803.09
2022-07-31T04:00:12.389Z,101805.13
2022-07-31T04:02:45.414Z,101808.06
2022-07-31T04:05:12.483Z,101801.53
2022-07-31T04:07:39.491Z,101808.78
2022-07-31T04:10:07.314Z,101818.94
2022-07-31T04:12:34.379Z,101813.22
2022-07-31T04:15:01.431Z,101812.81
2022-07-31T04:17:35.896Z,101802.63
2022-07-31T04:20:05.537Z,101808.00
2022-07-31T04:22:32.899Z,101807.50
2022-07-31T04:24:59.890Z,101799.53
2022-07-31T04:27:27.098Z,101797.81
2022-07-31T04:29:55.378Z,101801.38
2022-07-31T04:32:22.465Z,101791.84
2022-07-31T04:34:51.379Z,101789.41
2022-07-31T04:37:18.347Z,101778.13
2022-07-31T04:39:45.648Z,101798.28
2022-07-31T04:42:12.980Z,101792.31
2022-07-31T04:44:40.032Z,101796.34
2022-07-31T04:47:08.045Z,101779.13
2022-07-31T04:49:35.122Z,101733.56
2022-07-31T04:52:02.695Z,101780.34
2022-07-31T04:54:29.866Z,101782.31
2022-07-31T04:56:56.909Z,101790.13
2022-07-31T04:59:24.174Z,101788.16
2022-07-31T05:02:11.176Z,101789.97
2022-07-31T05:04:39.250Z,101791.31
2022-07-31T05:07:06.205Z,101801.22
2022-07-31T05:09:36.479Z,101802.28
2022-07-31T05:12:04.398Z,101792.97
2022-07-31T05:14:31.674Z,101803.63
2022-07-31T05:16:58.657Z,101809.97
2022-07-31T05:19:29.804Z,101803.13
2022-07-31T05:22:02.380Z,101808.47
2022-07-31T05:24:33.726Z,101793.63
2022-07-31T05:27:03.051Z,101792.63
2022-07-31T05:29:31.372Z,101798.59
2022-07-31T05:32:00.048Z,101794.25
2022-07-31T05:34:32.209Z,101802.19
2022-07-31T05:37:02.484Z,101783.84
2022-07-31T05:39:30.718Z,101804.13
2022-07-31T05:41:58.016Z,101737.66
2022-07-31T05:44:25.060Z,101798.81
2022-07-31T05:49:19.955Z,101802.28
2022-07-31T05:51:47.252Z,101796.94
2022-07-31T05:54:14.837Z,101784.72
2022-07-31T05:56:41.843Z,101800.31
2022-07-31T05:59:09.730Z,101798.28
2022-07-31T06:01:37.159Z,101791.91
2022-07-31T06:04:04.301Z,101787.38
2022-07-31T06:06:34.344Z,101794.09
2022-07-31T06:09:04.496Z,101795.72
2022-07-31T06:11:32.431Z,101802.66
2022-07-31T06:13:59.439Z,101806.25
2022-07-31T06:16:26.414Z,101805.44
2022-07-31T06:18:53.369Z,101809.06
2022-07-31T06:23:46.293Z,101806.94
2022-07-31T06:26:13.442Z,101803.97
2022-07-31T06:28:48.994Z,101804.25
2022-07-31T06:31:21.730Z,101810.03
2022-07-31T06:33:50.786Z,101809.66
2022-07-31T06:36:19.377Z,101802.38
2022-07-31T06:38:46.659Z,101812.53
2022-07-31T06:41:32.645Z,101799.06
2022-07-31T06:43:59.647Z,101812.81
2022-07-31T06:46:26.811Z,101797.75
2022-07-31T06:48:53.897Z,101804.53
2022-07-31T06:51:30.807Z,101806.88
2022-07-31T06:54:05.423Z,101800.31
2022-07-31T06:56:34.103Z,101801.72
2022-07-31T06:59:02.114Z,101797.81
2022-07-31T07:01:29.595Z,101804.44
2022-07-31T07:03:57.144Z,101809.44
2022-07-31T07:06:24.905Z,101809.28
2022-07-31T07:08:52.789Z,101807.13
2022-07-31T07:11:20.454Z,101802.41
2022-07-31T07:13:47.691Z,101811.19
2022-07-31T07:16:16.078Z,101804.97
2022-07-31T07:18:43.728Z,101807.81
2022-07-31T07:21:11.215Z,101799.41
2022-07-31T07:23:38.829Z,101797.81
2022-07-31T07:26:06.653Z,101796.34
2022-07-31T07:28:34.359Z,101794.66
2022-07-31T07:31:02.440Z,101795.34
2022-07-31T07:33:40.019Z,101800.88
2022-07-31T07:36:24.050Z,101798.16
2022-07-31T07:38:55.902Z,101787.53
2022-07-31T07:41:26.614Z,101783.75
2022-07-31T07:43:53.975Z,101787.16
2022-07-31T07:46:23.624Z,101786.28
2022-07-31T07:48:51.097Z,101779.28
2022-07-31T07:51:19.518Z,101778.94
2022-07-31T07:53:46.675Z,101773.56
2022-07-31T07:56:13.710Z,101774.34
2022-07-31T07:58:40.890Z,101765.38
2022-07-31T08:01:08.166Z,101768.06
2022-07-31T08:03:49.213Z,101769.69
2022-07-31T08:06:21.147Z,101756.03
2022-07-31T08:08:48.580Z,101758.56
2022-07-31T08:11:17.997Z,101755.72
2022-07-31T08:13:51.123Z,101752.50
2022-07-31T08:16:20.550Z,101757.50
2022-07-31T08:18:49.574Z,101754.66
2022-07-31T08:21:16.952Z,101758.53
2022-07-31T08:23:43.943Z,101757.50
2022-07-31T08:26:11.530Z,101745.91
2022-07-31T08:28:40.477Z,101747.28
2022-07-31T08:31:08.467Z,101754.88
2022-07-31T08:33:35.417Z,101742.06
2022-07-31T08:36:02.919Z,101752.22
2022-07-31T08:38:29.937Z,101752.03
2022-07-31T08:40:57.145Z,101751.66
2022-07-31T08:44:02.700Z,101756.75
2022-07-31T08:46:12.984Z,101749.56
2022-07-31T08:48:46.145Z,101751.84
2022-07-31T08:51:14.127Z,101755.59
2022-07-31T08:53:44.707Z,101752.03
2022-07-31T08:56:12.834Z,101744.66
2022-07-31T08:58:40.220Z,101754.06
2022-07-31T09:01:11.557Z,101743.91
2022-07-31T09:03:39.063Z,101753.16
2022-07-31T09:06:06.838Z,101749.25
2022-07-31T09:08:38.229Z,101750.78
2022-07-31T09:11:08.651Z,101751.38
2022-07-31T09:13:36.299Z,101755.28
2022-07-31T09:16:04.489Z,101752.31
2022-07-31T09:18:32.079Z,101745.13
2022-07-31T09:21:03.191Z,101750.69
2022-07-31T09:23:32.157Z,101747.16
2022-07-31T09:26:05.425Z,101748.66
2022-07-31T09:28:49.205Z,101753.44
2022-07-31T09:31:16.357Z,101743.59
2022-07-31T09:33:46.128Z,101744.25
2022-07-31T09:36:14.184Z,101737.72
2022-07-31T09:38:43.552Z,101727.59
2022-07-31T09:41:20.483Z,101736.03
2022-07-31T09:44:09.987Z,101724.72
2022-07-31T09:46:48.266Z,101720.09
2022-07-31T09:49:16.193Z,101725.09
2022-07-31T09:51:48.312Z,101723.28
2022-07-31T09:54:29.913Z,101726.94
2022-07-31T09:56:57.908Z,101719.53
2022-07-31T09:59:26.575Z,101722.78
2022-07-31T10:01:54.418Z,101726.00
2022-07-31T10:04:23.603Z,101720.19
2022-07-31T10:06:52.468Z,101714.56
2022-07-31T10:09:21.581Z,101704.41
2022-07-31T10:11:52.116Z,101713.59
2022-07-31T10:14:28.165Z,101710.94
2022-07-31T10:17:00.371Z,101703.06
2022-07-31T10:19:34.697Z,101708.44
2022-07-31T10:22:05.323Z,101706.72
2022-07-31T10:24:36.070Z,101709.41
2022-07-31T10:27:07.815Z,101702.50
2022-07-31T10:29:39.348Z,101699.81
2022-07-31T10:32:08.706Z,101703.94
2022-07-31T10:34:37.047Z,101709.22
2022-07-31T10:37:33.697Z,101709.59
2022-07-31T10:40:20.859Z,101710.94
2022-07-31T10:43:20.358Z,101702.31
2022-07-31T10:45:52.417Z,101709.13
2022-07-31T10:48:20.741Z,101714.19
2022-07-31T10:51:00.352Z,101694.66
2022-07-31T10:53:50.326Z,101700.31
2022-07-31T10:56:17.773Z,101693.91
2022-07-31T10:58:58.031Z,101692.06
2022-07-31T11:01:26.503Z,101689.06
2022-07-31T11:04:01.668Z,101689.66
2022-07-31T11:06:44.548Z,101688.22
2022-07-31T11:09:23.463Z,101686.63
2022-07-31T11:11:51.476Z,101697.34
2022-07-31T11:14:40.467Z,101688.72
2022-07-31T11:17:07.786Z,101687.38
2022-07-31T11:19:43.152Z,101684.69
2022-07-31T11:22:31.233Z,101684.44
2022-07-31T11:25:01.098Z,101676.28
2022-07-31T11:27:34.639Z,101672.25
2022-07-31T11:30:12.808Z,101672.06
2022-07-31T11:32:47.509Z,101672.84
2022-07-31T11:35:29.197Z,101674.56
2022-07-31T11:37:58.743Z,101671.56
2022-07-31T11:40:28.216Z,101672.81
2022-07-31T11:43:24.898Z,101665.63
2022-07-31T11:45:53.698Z,101661.41
2022-07-31T11:48:27.351Z,101669.94
2022-07-31T11:50:54.706Z,101666.16
2022-07-31T11:53:21.985Z,101667.88
2022-07-31T11:56:00.958Z,101676.25
2022-07-31T11:58:29.580Z,101670.41
2022-07-31T12:00:59.148Z,101662.56
2022-07-31T12:03:33.413Z,101647.13
2022-07-31T12:06:01.028Z,101647.78
2022-07-31T12:08:29.603Z,101654.84
2022-07-31T12:10:59.817Z,101650.78
2022-07-31T12:13:28.428Z,101640.13
2022-07-31T12:15:56.629Z,101651.03
2022-07-31T12:18:26.302Z,101645.16
2022-07-31T12:21:03.659Z,101652.69
2022-07-31T12:23:41.912Z,101642.41
2022-07-31T12:26:22.021Z,101636.41
2022-07-31T12:29:02.083Z,101635.91
2022-07-31T12:31:32.540Z,101615.69
2022-07-31T12:33:59.621Z,101624.97
2022-07-31T12:36:27.321Z,101624.66
2022-07-31T12:39:02.495Z,101621.75
2022-07-31T12:41:30.918Z,101590.63
2022-07-31T12:44:13.465Z,101609.66
2022-07-31T12:46:42.018Z,101603.13
2022-07-31T12:49:09.432Z,101609.34
2022-07-31T12:51:45.439Z,101605.78
2022-07-31T12:54:18.008Z,101605.25
2022-07-31T12:56:46.601Z,101607.91
2022-07-31T12:59:14.225Z,101594.28
2022-07-31T13:01:41.685Z,101594.56
2022-07-31T13:04:19.103Z,101586.59
2022-07-31T13:06:48.583Z,101599.81
2022-07-31T13:09:16.129Z,101594.16
2022-07-31T13:11:46.442Z,101595.75
2022-07-31T13:14:17.323Z,101591.81
2022-07-31T13:16:45.658Z,101588.19
2022-07-31T13:19:13.697Z,101582.97
2022-07-31T13:21:49.347Z,101585.34
2022-07-31T13:24:21.320Z,101592.03
2022-07-31T13:26:51.438Z,101579.00
2022-07-31T13:29:18.572Z,101582.38
2022-07-31T13:31:45.610Z,101586.94
2022-07-31T13:34:13.195Z,101586.22
2022-07-31T13:36:40.401Z,101585.25
2022-07-31T13:39:08.627Z,101582.34
2022-07-31T13:41:39.217Z,101576.22
2022-07-31T13:44:07.815Z,101588.66
2022-07-31T13:46:35.493Z,101577.56
2022-07-31T13:49:04.027Z,101568.69
2022-07-31T13:51:31.028Z,101571.38
2022-07-31T13:53:57.973Z,101568.53
2022-07-31T13:56:38.976Z,101572.53
2022-07-31T13:59:13.274Z,101564.22
2022-07-31T14:02:04.538Z,101564.13
2022-07-31T14:04:32.361Z,101564.28
2022-07-31T14:07:03.436Z,101545.34
2022-07-31T14:09:34.648Z,101561.16
2022-07-31T14:12:04.669Z,101557.72
2022-07-31T14:14:34.657Z,101565.66
2022-07-31T14:17:01.639Z,101549.38
2022-07-31T14:19:28.727Z,101552.28
2022-07-31T14:21:56.916Z,101548.53
2022-07-31T14:24:40.251Z,101546.72
2022-07-31T14:27:07.577Z,101550.91
2022-07-31T14:29:36.043Z,101549.66
2022-07-31T14:32:07.771Z,101551.69
2022-07-31T14:34:35.887Z,101538.66
2022-07-31T14:37:03.564Z,101536.09
2022-07-31T14:39:31.195Z,101533.19
2022-07-31T14:41:58.178Z,101529.00
2022-07-31T14:44:28.543Z,101534.81
2022-07-31T14:46:56.272Z,101530.72
2022-07-31T14:49:23.536Z,101517.19
2022-07-31T14:51:50.543Z,101524.94
2022-07-31T14:54:17.530Z,101527.06
2022-07-31T14:57:00.674Z,101530.50
2022-07-31T14:59:32.245Z,101524.06
2022-07-31T15:02:00.182Z,101519.00
2022-07-31T15:04:35.490Z,101523.19
2022-07-31T15:07:32.310Z,101501.41
2022-07-31T15:09:50.244Z,101523.97
2022-07-31T15:12:17.211Z,101521.06
2022-07-31T15:14:44.749Z,101511.94
2022-07-31T15:17:11.795Z,101520.63
2022-07-31T15:19:38.755Z,101506.47
2022-07-31T15:22:15.827Z,101518.50
2022-07-31T15:24:49.155Z,101509.38
2022-07-31T15:27:24.692Z,101510.53
2022-07-31T15:30:00.319Z,101516.16
2022-07-31T15:32:35.166Z,101507.94
2022-07-31T15:35:02.428Z,101517.72
2022-07-31T15:37:30.335Z,101510.94
2022-07-31T15:40:02.981Z,101515.53
2022-07-31T15:42:32.455Z,101525.97
2022-07-31T15:44:59.391Z,101522.94
2022-07-31T15:47:26.395Z,101513.38
2022-07-31T15:49:53.356Z,101512.41
2022-07-31T15:52:20.365Z,101518.75
2022-07-31T15:54:51.785Z,101512.66
2022-07-31T15:57:23.830Z,101512.75
2022-07-31T15:59:56.665Z,101511.13
2022-07-31T16:02:24.827Z,101512.97
2022-07-31T16:04:56.457Z,101514.16
2022-07-31T16:08:32.333Z,101516.38
2022-07-31T16:10:18.165Z,101505.47
2022-07-31T16:12:46.358Z,101501.19
2022-07-31T16:15:16.263Z,101493.44
2022-07-31T16:17:45.238Z,101483.13
2022-07-31T16:20:26.798Z,101484.00
2022-07-31T16:23:01.019Z,101484.88
2022-07-31T16:25:32.059Z,101495.25
2022-07-31T16:28:04.879Z,101497.09
2022-07-31T16:30:32.693Z,101490.97
2022-07-31T16:32:59.990Z,101476.06
2022-07-31T16:35:27.471Z,101489.47
2022-07-31T16:37:55.367Z,101483.34
2022-07-31T16:40:30.008Z,101482.47
2022-07-31T16:43:48.499Z,101486.34
2022-07-31T16:45:55.675Z,101475.16
2022-07-31T16:48:23.225Z,101477.63
2022-07-31T16:50:54.132Z,101475.16
2022-07-31T16:54:12.113Z,101479.75
2022-07-31T16:56:16.714Z,101474.59
2022-07-31T16:58:44.308Z,101460.53
2022-07-31T17:01:57.153Z,101465.91
2022-07-31T17:04:03.998Z,101464.09
2022-07-31T17:06:38.025Z,101456.13
2022-07-31T17:09:16.129Z,101444.56
2022-07-31T17:11:48.263Z,101436.94
2022-07-31T17:14:20.466Z,101435.13
2022-07-31T17:16:49.736Z,101456.47
2022-07-31T17:19:36.013Z,101448.72
2022-07-31T17:22:04.959Z,101448.81
2022-07-31T17:24:32.179Z,101446.13
2022-07-31T17:26:59.845Z,101447.84
2022-07-31T17:29:27.158Z,101446.13
2022-07-31T17:31:54.366Z,101441.00
2022-07-31T17:34:21.660Z,101441.09
2022-07-31T17:36:50.275Z,101441.19
2022-07-31T17:39:17.905Z,101432.56
2022-07-31T17:41:45.043Z,101441.38
2022-07-31T17:44:12.162Z,101439.03
2022-07-31T17:46:48.051Z,101440.94
2022-07-31T17:49:19.357Z,101428.22
2022-07-31T17:51:59.032Z,101438.75
2022-07-31T17:54:35.254Z,101433.75
2022-07-31T17:57:04.013Z,101446.19
2022-07-31T17:59:32.296Z,101436.84
2022-07-31T18:02:00.455Z,101442.03
2022-07-31T18:04:31.231Z,101441.44
2022-07-31T18:07:00.495Z,101445.66
2022-07-31T18:09:28.775Z,101436.09
2022-07-31T18:11:57.683Z,101446.81
2022-07-31T18:14:26.083Z,101438.41
2022-07-31T18:16:53.953Z,101447.31
2022-07-31T18:19:22.088Z,101447.41
2022-07-31T18:21:51.009Z,101468.41
2022-07-31T18:24:20.517Z,101468.41
2022-07-31T18:26:48.251Z,101468.41
2022-07-31T18:29:17.102Z,101476.47
2022-07-31T18:31:45.594Z,101476.78
2022-07-31T18:34:13.645Z,101487.47
2022-07-31T18:36:41.238Z,101497.53
2022-07-31T18:39:08.565Z,101495.16
2022-07-31T18:41:35.758Z,101493.63
2022-07-31T18:44:03.473Z,101510.53
2022-07-31T18:46:32.258Z,101518.22
2022-07-31T18:48:59.886Z,101527.38
2022-07-31T18:51:29.319Z,101519.53
2022-07-31T18:53:56.999Z,101532.41
2022-07-31T18:56:25.951Z,101534.59
2022-07-31T18:58:54.685Z,101529.06
2022-07-31T19:01:23.554Z,101539.16
2022-07-31T19:03:52.379Z,101532.47
2022-07-31T19:06:20.634Z,101538.69
2022-07-31T19:08:49.681Z,101529.09
2022-07-31T19:11:19.171Z,101540.38
2022-07-31T19:13:46.921Z,101542.63
2022-07-31T19:16:15.858Z,101542.91
2022-07-31T19:18:45.067Z,101545.75
2022-07-31T19:21:21.312Z,101544.97
2022-07-31T19:23:55.379Z,101542.47
2022-07-31T19:26:22.399Z,101552.28
2022-07-31T19:28:49.432Z,101546.53
2022-07-31T19:31:16.606Z,101546.03
2022-07-31T19:33:43.641Z,101540.25
2022-07-31T19:36:15.280Z,101530.09
2022-07-31T19:38:44.320Z,101539.81
2022-07-31T19:41:13.064Z,101543.25
2022-07-31T19:43:40.122Z,101537.41
2022-07-31T19:46:11.826Z,101542.66
2022-07-31T19:48:45.927Z,101545.34
2022-07-31T19:51:15.857Z,101537.41
2022-07-31T19:53:44.601Z,101527.97
2022-07-31T19:56:19.701Z,101536.69
2022-07-31T19:58:48.559Z,101525.22
2022-07-31T20:01:15.894Z,101523.50
2022-07-31T20:03:43.108Z,101523.50
2022-07-31T20:06:10.167Z,101520.81
2022-07-31T20:08:37.424Z,101512.13
2022-07-31T20:11:05.437Z,101505.47
2022-07-31T20:13:33.790Z,101513.25
2022-07-31T20:16:01.690Z,101509.78
2022-07-31T20:18:29.584Z,101498.41
2022-07-31T20:21:02.546Z,101494.00
2022-07-31T20:23:31.266Z,101490.47
2022-07-31T20:25:58.581Z,101486.00
2022-07-31T20:28:26.723Z,101482.38
2022-07-31T20:30:54.305Z,101484.97
2022-07-31T20:33:21.561Z,101482.38
2022-07-31T20:35:50.397Z,101486.00
2022-07-31T20:38:24.606Z,101488.59
2022-07-31T20:40:55.671Z,101474.38
2022-07-31T20:43:26.240Z,101478.78
2022-07-31T20:45:57.130Z,101464.63
2022-07-31T20:48:32.823Z,101462.06
2022-07-31T20:51:02.809Z,101464.56
2022-07-31T20:53:30.464Z,101458.53
2022-07-31T20:55:58.523Z,101468.09
2022-07-31T20:58:26.522Z,101463.63
2022-07-31T21:00:54.609Z,101462.66
2022-07-31T21:03:22.303Z,101459.91
2022-07-31T21:05:49.831Z,101458.34
2022-07-31T21:08:17.655Z,101441.75
2022-07-31T21:10:45.192Z,101447.69
2022-07-31T21:13:12.566Z,101461.72
2022-07-31T21:15:43.035Z,101447.50
2022-07-31T21:18:19.813Z,101446.72
2022-07-31T21:20:52.013Z,101439.75
2022-07-31T21:23:23.053Z,101438.13
2022-07-31T21:25:52.313Z,101445.16
2022-07-31T21:28:19.833Z,101438.38
2022-07-31T21:30:47.609Z,101436.56
2022-07-31T21:33:15.120Z,101438.13
2022-07-31T21:35:42.585Z,101438.13
2022-07-31T21:38:12.297Z,101435.34
2022-07-31T21:40:40.726Z,101431.38
2022-07-31T21:43:09.140Z,101426.91
2022-07-31T21:45:50.426Z,101435.00
2022-07-31T21:48:25.150Z,101434.25
2022-07-31T21:50:53.718Z,101428.28
2022-07-31T21:53:21.095Z,101421.38
2022-07-31T21:55:48.117Z,101429.06
2022-07-31T21:58:15.281Z,101430.81
2022-07-31T22:00:42.884Z,101428.13
2022-07-31T22:03:10.080Z,101426.25
2022-07-31T22:05:55.958Z,101426.13
2022-07-31T22:08:22.926Z,101417.47
2022-07-31T22:10:52.097Z,101426.84
2022-07-31T22:13:20.095Z,101418.81
2022-07-31T22:15:59.370Z,101412.69
2022-07-31T22:18:36.901Z,101423.13
2022-07-31T22:21:07.640Z,101413.41
2022-07-31T22:23:36.205Z,101411.50
2022-07-31T22:26:03.819Z,101417.78
2022-07-31T22:28:31.676Z,101409.88
2022-07-31T22:30:59.282Z,101416.16
2022-07-31T22:33:27.681Z,101420.72
2022-07-31T22:36:02.515Z,101415.44
2022-07-31T22:38:31.011Z,101414.59
2022-07-31T22:41:02.202Z,101413.75
2022-07-31T22:44:12.427Z,101398.06
2022-07-31T22:46:17.684Z,101408.66
2022-07-31T22:48:46.446Z,101406.00
2022-07-31T22:51:14.803Z,101413.06
2022-07-31T22:53:49.121Z,101408.81
2022-07-31T22:56:17.777Z,101409.53
2022-07-31T22:58:44.754Z,101405.13
2022-07-31T23:01:11.797Z,101406.56
2022-07-31T23:03:38.780Z,101402.03
2022-07-31T23:06:30.823Z,101401.09
2022-07-31T23:08:54.591Z,101399.19
2022-07-31T23:11:23.258Z,101395.56
2022-07-31T23:13:51.472Z,101386.00
2022-07-31T23:16:20.320Z,101389.28
2022-07-31T23:18:47.845Z,101397.31
2022-07-31T23:21:14.975Z,101391.19
2022-07-31T23:23:41.942Z,101391.25
2022-07-31T23:26:15.864Z,101388.75
2022-07-31T23:28:42.824Z,101388.88
2022-07-31T23:31:09.889Z,101381.72
2022-07-31T23:33:36.866Z,101376.56
2022-07-31T23:36:04.175Z,101379.88
2022-07-31T23:38:31.571Z,101384.19
2022-07-31T23:40:58.672Z,101379.13
2022-07-31T23:43:26.028Z,101378.00
2022-07-31T23:45:54.151Z,101376.28
2022-07-31T23:48:21.524Z,101389.44
2022-07-31T23:50:49.173Z,101386.09
2022-07-31T23:53:16.628Z,101386.94
2022-07-31T23:55:44.102Z,101393.16
2022-07-31T23:58:11.865Z,101382.91
